createdAt,value
2023-08-02T00:00:10.940Z,8.55
2023-08-02T00:02:37.942Z,11.73
2023-08-02T00:05:05.303Z,12.18
2023-08-02T00:07:32.294Z,12.18
2023-08-02T00:09:59.182Z,10.43
2023-08-02T00:12:26.599Z,9.85
2023-08-02T00:14:54.334Z,12.15
2023-08-02T00:17:24.159Z,12.55
2023-08-02T00:19:51.944Z,14.45
2023-08-02T00:22:23.786Z,14.00
2023-08-02T00:27:17.534Z,12.88
2023-08-02T00:29:44.433Z,16.20
2023-08-02T00:32:11.379Z,13.43
2023-08-02T00:34:44.467Z,11.93
2023-08-02T00:37:11.474Z,9.73
2023-08-02T00:39:39.256Z,11.95
2023-08-02T00:42:18.313Z,14.00
2023-08-02T00:44:46.474Z,15.15
2023-08-02T00:47:15.824Z,11.30
2023-08-02T00:49:43.066Z,18.10
2023-08-02T00:52:14.104Z,11.93
2023-08-02T00:54:43.298Z,13.50
2023-08-02T00:57:10.786Z,13.10
2023-08-02T00:59:40.037Z,16.42
2023-08-02T01:02:08.424Z,15.25
2023-08-02T01:04:38.222Z,19.65
2023-08-02T01:07:24.607Z,16.38
2023-08-02T01:10:05.412Z,11.45
2023-08-02T01:12:36.515Z,14.38
2023-08-02T01:15:04.940Z,16.97
2023-08-02T01:17:40.407Z,15.00
2023-08-02T01:20:08.068Z,11.75
2023-08-02T01:22:35.461Z,14.75
2023-08-02T01:25:05.801Z,13.77
2023-08-02T01:27:41.274Z,16.02
2023-08-02T01:30:13.592Z,14.32
2023-08-02T01:32:40.984Z,16.42
2023-08-02T01:35:10.155Z,14.55
2023-08-02T01:37:37.377Z,18.23
2023-08-02T01:40:05.327Z,13.23
2023-08-02T01:42:32.532Z,15.60
2023-08-02T01:45:01.972Z,18.13
2023-08-02T01:47:30.904Z,14.65
2023-08-02T01:49:57.817Z,12.05
2023-08-02T01:52:24.680Z,12.27
2023-08-02T01:54:51.676Z,13.45
2023-08-02T01:57:18.712Z,15.85
2023-08-02T01:59:50.353Z,15.65
2023-08-02T02:02:18.058Z,18.55
2023-08-02T02:04:45.612Z,18.73
2023-08-02T02:07:12.818Z,17.63
2023-08-02T02:09:50.639Z,15.35
2023-08-02T02:12:25.874Z,20.77
2023-08-02T02:15:00.993Z,17.27
2023-08-02T02:17:28.183Z,16.55
2023-08-02T02:19:55.129Z,13.90
2023-08-02T02:22:32.305Z,16.30
2023-08-02T02:25:09.994Z,20.40
2023-08-02T02:27:44.727Z,14.77
2023-08-02T02:30:12.457Z,13.07
2023-08-02T02:32:39.507Z,16.20
2023-08-02T02:35:07.436Z,14.10
2023-08-02T02:37:34.269Z,18.08
2023-08-02T02:40:02.218Z,17.73
2023-08-02T02:42:29.209Z,16.98
2023-08-02T02:44:56.142Z,16.33
2023-08-02T02:47:23.739Z,13.60
2023-08-02T02:49:53.784Z,12.15
2023-08-02T02:52:20.902Z,13.75
2023-08-02T02:54:47.953Z,15.35
2023-08-02T02:57:27.858Z,17.52
2023-08-02T03:00:03.803Z,17.80
2023-08-02T03:02:30.876Z,13.18
2023-08-02T03:05:05.520Z,18.42
2023-08-02T03:07:35.637Z,11.98
2023-08-02T03:10:05.586Z,13.45
2023-08-02T03:12:43.243Z,12.43
2023-08-02T03:15:13.174Z,14.63
2023-08-02T03:17:40.412Z,13.45
2023-08-02T03:20:08.265Z,15.00
2023-08-02T03:22:35.225Z,12.10
2023-08-02T03:25:02.140Z,11.65
2023-08-02T03:27:38.896Z,16.23
2023-08-02T03:30:14.876Z,11.23
2023-08-02T03:32:47.290Z,13.82
2023-08-02T03:35:14.314Z,15.30
2023-08-02T03:37:49.066Z,12.02
2023-08-02T03:40:23.737Z,12.15
2023-08-02T03:42:50.573Z,10.68
2023-08-02T03:45:17.535Z,10.13
2023-08-02T03:47:44.669Z,10.45
2023-08-02T03:50:11.502Z,13.38
2023-08-02T03:52:49.195Z,9.75
2023-08-02T03:55:18.491Z,8.00
2023-08-02T03:57:45.439Z,11.02
2023-08-02T04:00:12.750Z,9.07
2023-08-02T04:02:40.526Z,14.95
2023-08-02T04:05:07.873Z,9.27
2023-08-02T04:07:34.759Z,11.68
2023-08-02T04:10:01.759Z,11.95
2023-08-02T04:12:28.874Z,11.43
2023-08-02T04:14:56.521Z,7.30
2023-08-02T04:17:23.584Z,6.45
2023-08-02T04:19:50.505Z,9.73
2023-08-02T04:22:22.012Z,12.15
2023-08-02T04:24:50.292Z,13.77
2023-08-02T04:27:26.106Z,10.88
2023-08-02T04:29:53.053Z,9.02
2023-08-02T04:32:23.928Z,8.27
2023-08-02T04:34:51.202Z,7.72
2023-08-02T04:37:18.277Z,12.25
2023-08-02T04:39:45.262Z,11.38
2023-08-02T04:42:12.187Z,8.70
2023-08-02T04:44:39.125Z,9.55
2023-08-02T04:47:06.081Z,7.80
2023-08-02T04:49:33.103Z,9.68
2023-08-02T04:52:00.065Z,8.60
2023-08-02T04:54:29.562Z,9.23
2023-08-02T04:56:59.491Z,7.72
2023-08-02T04:59:26.287Z,20.63
2023-08-02T05:01:53.206Z,13.65
2023-08-02T05:04:20.503Z,6.53
2023-08-02T05:06:47.619Z,5.63
2023-08-02T05:09:14.484Z,7.57
2023-08-02T05:11:43.190Z,6.63
2023-08-02T05:14:10.566Z,4.65
2023-08-02T05:16:38.406Z,7.63
2023-08-02T05:19:05.480Z,8.88
2023-08-02T05:21:33.139Z,11.40
2023-08-02T05:24:00.022Z,7.50
2023-08-02T05:26:27.022Z,9.50
2023-08-02T05:28:57.161Z,10.05
2023-08-02T05:31:24.099Z,6.40
2023-08-02T05:33:51.178Z,7.40
2023-08-02T05:36:18.349Z,3.50
2023-08-02T05:38:45.421Z,5.07
2023-08-02T05:41:16.077Z,4.55
2023-08-02T05:43:46.072Z,4.32
2023-08-02T05:46:13.125Z,5.95
2023-08-02T05:48:40.141Z,5.55
2023-08-02T05:51:07.734Z,4.72
2023-08-02T05:53:34.832Z,8.50
2023-08-02T05:56:01.921Z,3.92
2023-08-02T05:58:30.219Z,6.90
2023-08-02T06:00:57.407Z,4.93
2023-08-02T06:03:27.367Z,5.40
2023-08-02T06:05:54.425Z,4.82
2023-08-02T06:08:21.399Z,4.38
2023-08-02T06:10:51.209Z,4.28
2023-08-02T06:13:18.800Z,10.00
2023-08-02T06:15:46.529Z,7.18
2023-08-02T06:18:14.937Z,10.13
2023-08-02T06:20:41.985Z,4.68
2023-08-02T06:23:08.864Z,7.35
2023-08-02T06:25:36.170Z,6.68
2023-08-02T06:28:08.306Z,9.75
2023-08-02T06:30:35.357Z,7.33
2023-08-02T06:33:07.688Z,9.82
2023-08-02T06:35:35.075Z,11.63
2023-08-02T06:38:05.381Z,12.75
2023-08-02T06:40:32.845Z,12.65
2023-08-02T06:43:03.201Z,7.53
2023-08-02T06:45:29.947Z,8.93
2023-08-02T06:47:56.846Z,11.05
2023-08-02T06:50:25.701Z,13.20
2023-08-02T06:52:52.843Z,14.10
2023-08-02T06:55:25.636Z,12.50
2023-08-02T06:57:53.044Z,14.45
2023-08-02T07:00:19.992Z,14.13
2023-08-02T07:02:46.930Z,8.25
2023-08-02T07:05:13.871Z,14.52
2023-08-02T07:07:40.914Z,8.80
2023-08-02T07:10:10.771Z,11.93
2023-08-02T07:12:38.730Z,11.07
2023-08-02T07:15:06.373Z,10.55
2023-08-02T07:17:33.292Z,14.75
2023-08-02T07:20:00.262Z,8.95
2023-08-02T07:22:32.569Z,15.95
2023-08-02T07:24:59.514Z,10.40
2023-08-02T07:27:26.639Z,15.05
2023-08-02T07:29:54.383Z,11.55
2023-08-02T07:32:21.365Z,14.02
2023-08-02T07:34:49.083Z,13.68
2023-08-02T07:37:16.519Z,14.25
2023-08-02T07:39:46.585Z,13.32
2023-08-02T07:42:13.443Z,13.45
2023-08-02T07:44:40.837Z,14.40
2023-08-02T07:47:07.874Z,21.15
2023-08-02T07:49:35.003Z,14.02
2023-08-02T07:52:02.073Z,12.15
2023-08-02T07:54:32.220Z,13.35
2023-08-02T07:57:03.548Z,12.15
2023-08-02T07:59:30.534Z,9.57
2023-08-02T08:01:57.558Z,13.35
2023-08-02T08:04:24.586Z,13.52
2023-08-02T08:06:52.686Z,9.05
2023-08-02T08:09:25.442Z,15.30
2023-08-02T08:11:56.291Z,11.30
2023-08-02T08:14:23.476Z,13.88
2023-08-02T08:16:50.622Z,11.68
2023-08-02T08:19:17.593Z,11.73
2023-08-02T08:21:44.886Z,13.52
2023-08-02T08:24:13.455Z,10.27
2023-08-02T08:26:41.720Z,13.32
2023-08-02T08:29:09.038Z,8.48
2023-08-02T08:31:36.098Z,12.48
2023-08-02T08:34:03.695Z,14.32
2023-08-02T08:36:33.486Z,10.85
2023-08-02T08:39:02.713Z,12.85
2023-08-02T08:41:29.724Z,9.45
2023-08-02T08:43:56.955Z,14.50
2023-08-02T08:46:27.206Z,13.35
2023-08-02T08:48:54.215Z,15.05
2023-08-02T08:51:27.638Z,13.25
2023-08-02T08:53:57.878Z,8.60
2023-08-02T08:56:29.242Z,10.85
2023-08-02T08:58:57.621Z,15.52
2023-08-02T09:01:32.381Z,15.52
2023-08-02T09:04:07.883Z,10.00
2023-08-02T09:06:42.840Z,14.27
2023-08-02T09:09:09.940Z,12.45
2023-08-02T09:11:38.018Z,10.77
2023-08-02T09:14:13.053Z,12.88
2023-08-02T09:17:08.952Z,16.15
2023-08-02T09:19:40.937Z,13.77
2023-08-02T09:22:07.810Z,10.93
2023-08-02T09:24:36.770Z,13.05
2023-08-02T09:27:26.058Z,11.52
2023-08-02T09:30:01.725Z,11.77
2023-08-02T09:32:29.153Z,14.57
2023-08-02T09:34:59.647Z,10.90
2023-08-02T09:37:35.038Z,13.98
2023-08-02T09:40:06.136Z,21.98
2023-08-02T09:42:36.143Z,15.27
2023-08-02T09:45:10.263Z,18.50
2023-08-02T09:47:40.553Z,10.50
2023-08-02T09:50:12.686Z,11.27
2023-08-02T09:52:42.801Z,20.30
2023-08-02T09:55:13.826Z,12.88
2023-08-02T09:57:44.473Z,8.18
2023-08-02T10:00:11.842Z,10.13
2023-08-02T10:02:45.704Z,9.30
2023-08-02T10:05:19.931Z,14.15
2023-08-02T10:07:52.268Z,9.18
2023-08-02T10:10:32.798Z,10.55
2023-08-02T10:13:31.769Z,13.98
2023-08-02T10:16:00.080Z,8.25
2023-08-02T10:18:28.677Z,10.02
2023-08-02T10:20:57.055Z,11.32
2023-08-02T10:23:24.012Z,7.85
2023-08-02T10:25:51.551Z,6.07
2023-08-02T10:28:19.242Z,7.05
2023-08-02T10:30:48.553Z,10.27
2023-08-02T10:33:24.028Z,10.35
2023-08-02T10:36:04.017Z,10.95
2023-08-02T10:38:40.303Z,8.45
2023-08-02T10:41:12.499Z,8.98
2023-08-02T10:43:55.174Z,10.73
2023-08-02T10:46:34.028Z,8.18
2023-08-02T10:49:10.305Z,10.65
2023-08-02T10:51:41.189Z,12.35
2023-08-02T10:54:22.645Z,12.53
2023-08-02T10:57:06.126Z,7.75
2023-08-02T10:59:32.980Z,7.88
2023-08-02T11:02:12.582Z,9.98
2023-08-02T11:04:46.443Z,11.63
2023-08-02T11:07:21.553Z,9.10
2023-08-02T11:09:50.508Z,11.27
2023-08-02T11:12:27.649Z,9.65
2023-08-02T11:15:02.592Z,12.95
2023-08-02T11:17:54.636Z,7.10
2023-08-02T11:20:33.815Z,8.95
2023-08-02T11:23:00.964Z,14.73
2023-08-02T11:28:04.796Z,13.68
2023-08-02T11:30:35.230Z,7.85
2023-08-02T11:33:02.384Z,11.63
2023-08-02T11:35:29.433Z,11.65
2023-08-02T11:37:56.558Z,9.07
2023-08-02T11:40:27.253Z,12.57
2023-08-02T11:42:56.323Z,9.73
2023-08-02T11:45:34.526Z,8.82
2023-08-02T11:50:36.730Z,10.63
2023-08-02T11:53:11.915Z,10.57
2023-08-02T11:55:52.924Z,10.73
2023-08-02T11:58:30.332Z,11.07
2023-08-02T12:01:05.644Z,12.90
2023-08-02T12:03:32.640Z,10.23
2023-08-02T12:06:01.935Z,11.27
2023-08-02T12:08:29.118Z,10.38
2023-08-02T12:10:56.564Z,11.30
2023-08-02T12:13:27.566Z,13.07
2023-08-02T12:16:15.024Z,11.25
2023-08-02T12:19:00.495Z,10.88
2023-08-02T12:21:27.811Z,13.70
2023-08-02T12:23:55.152Z,9.63
2023-08-02T12:26:36.642Z,16.05
2023-08-02T12:29:04.761Z,9.57
2023-08-02T12:31:49.853Z,10.30
2023-08-02T12:34:16.952Z,16.80
2023-08-02T12:36:45.040Z,14.18
2023-08-02T12:39:12.289Z,13.95
2023-08-02T12:41:39.252Z,11.85
2023-08-02T12:44:06.627Z,21.98
2023-08-02T12:46:33.709Z,14.70
2023-08-02T12:49:00.633Z,13.23
2023-08-02T12:51:30.486Z,8.32
2023-08-02T12:54:05.678Z,13.57
2023-08-02T12:56:37.669Z,10.88
2023-08-02T12:59:06.161Z,13.48
2023-08-02T13:01:35.490Z,12.65
2023-08-02T13:04:03.139Z,14.05
2023-08-02T13:06:30.337Z,11.68
2023-08-02T13:08:57.245Z,12.98
2023-08-02T13:11:24.222Z,13.75
2023-08-02T13:13:51.177Z,9.48
2023-08-02T13:16:18.156Z,9.40
2023-08-02T13:18:47.016Z,10.75
2023-08-02T13:21:27.031Z,10.82
2023-08-02T13:24:02.970Z,12.93
2023-08-02T13:26:32.230Z,11.77
2023-08-02T13:29:00.014Z,11.23
2023-08-02T13:31:27.115Z,14.07
2023-08-02T13:33:56.773Z,11.32
2023-08-02T13:36:23.879Z,9.55
2023-08-02T13:38:50.831Z,12.48
2023-08-02T13:41:26.486Z,11.02
2023-08-02T13:43:53.529Z,9.02
2023-08-02T13:46:20.413Z,8.32
2023-08-02T13:48:47.257Z,13.48
2023-08-02T13:51:14.146Z,7.47
2023-08-02T13:53:41.117Z,10.55
2023-08-02T13:56:08.388Z,8.80
2023-08-02T13:58:35.228Z,8.45
2023-08-02T14:01:03.236Z,13.50
2023-08-02T14:03:30.288Z,17.02
2023-08-02T14:05:57.281Z,14.13
2023-08-02T14:08:24.423Z,13.50
2023-08-02T14:10:59.300Z,9.00
2023-08-02T14:13:36.608Z,11.40
2023-08-02T14:16:06.968Z,17.77
2023-08-02T14:18:33.993Z,14.82
2023-08-02T14:21:00.952Z,15.40
2023-08-02T14:23:29.602Z,8.98
2023-08-02T14:25:57.071Z,6.32
2023-08-02T14:28:24.005Z,12.63
2023-08-02T14:30:51.012Z,9.30
2023-08-02T14:33:19.145Z,12.80
2023-08-02T14:35:46.075Z,13.43
2023-08-02T14:38:13.066Z,10.50
2023-08-02T14:40:40.009Z,10.15
2023-08-02T14:43:07.046Z,11.45
2023-08-02T14:45:33.972Z,9.60
2023-08-02T14:48:00.934Z,8.93
2023-08-02T14:50:29.082Z,9.00
2023-08-02T14:53:00.500Z,11.55
2023-08-02T14:55:30.465Z,9.98
2023-08-02T14:58:00.081Z,12.68
2023-08-02T15:00:27.013Z,11.20
2023-08-02T15:02:54.085Z,9.95
2023-08-02T15:05:24.319Z,7.88
2023-08-02T15:07:51.328Z,10.32
2023-08-02T15:10:19.898Z,8.43
2023-08-02T15:12:46.809Z,8.80
2023-08-02T15:15:17.678Z,6.60
2023-08-02T15:17:48.240Z,9.02
2023-08-02T15:20:15.292Z,7.82
2023-08-02T15:22:42.556Z,8.65
2023-08-02T15:25:12.088Z,6.28
2023-08-02T15:27:38.948Z,8.27
2023-08-02T15:30:06.440Z,7.15
2023-08-02T15:32:33.738Z,8.05
2023-08-02T15:35:00.787Z,10.05
2023-08-02T15:37:27.777Z,6.40
2023-08-02T15:39:54.610Z,8.13
2023-08-02T15:42:25.434Z,9.90
2023-08-02T15:44:53.150Z,7.95
2023-08-02T15:47:32.000Z,6.22
2023-08-02T15:50:08.161Z,6.80
2023-08-02T15:52:35.242Z,8.65
2023-08-02T15:55:02.201Z,10.05
2023-08-02T15:57:38.254Z,10.40
2023-08-02T16:00:06.003Z,7.43
2023-08-02T16:02:37.803Z,9.90
2023-08-02T16:05:05.024Z,6.60
2023-08-02T16:07:31.933Z,8.00
2023-08-02T16:09:58.811Z,7.22
2023-08-02T16:12:29.083Z,8.23
2023-08-02T16:14:56.076Z,6.57
2023-08-02T16:17:23.104Z,6.32
2023-08-02T16:19:50.149Z,8.05
2023-08-02T16:22:17.070Z,9.02
2023-08-02T16:24:43.996Z,6.35
2023-08-02T16:27:10.851Z,7.68
2023-08-02T16:29:38.656Z,9.20
2023-08-02T16:32:06.155Z,8.43
2023-08-02T16:34:33.411Z,6.95
2023-08-02T16:37:00.377Z,6.47
2023-08-02T16:39:27.241Z,8.10
2023-08-02T16:41:54.314Z,5.28
2023-08-02T16:44:21.651Z,6.03
2023-08-02T16:46:48.696Z,7.28
2023-08-02T16:49:17.471Z,5.75
2023-08-02T16:51:51.101Z,6.88
2023-08-02T16:54:26.645Z,9.30
2023-08-02T16:56:53.703Z,6.18
2023-08-02T16:59:26.791Z,12.35
2023-08-02T17:02:09.790Z,5.22
2023-08-02T17:04:37.858Z,9.40
2023-08-02T17:07:05.388Z,6.25
2023-08-02T17:09:34.294Z,5.43
2023-08-02T17:12:02.503Z,6.00
2023-08-02T17:14:35.341Z,7.00
2023-08-02T17:17:06.350Z,6.57
2023-08-02T17:19:34.021Z,5.80
2023-08-02T17:22:01.015Z,5.47
2023-08-02T17:24:30.422Z,6.57
2023-08-02T17:26:57.587Z,5.85
2023-08-02T17:29:24.736Z,7.53
2023-08-02T17:31:58.818Z,6.03
2023-08-02T17:34:33.519Z,6.38
2023-08-02T17:37:00.590Z,9.75
2023-08-02T17:39:27.602Z,11.65
2023-08-02T17:41:55.066Z,6.93
2023-08-02T17:44:22.128Z,8.90
2023-08-02T17:46:51.670Z,6.88
2023-08-02T17:49:18.832Z,7.88
2023-08-02T17:51:47.314Z,5.63
2023-08-02T17:54:15.544Z,6.50
2023-08-02T17:56:42.421Z,7.93
2023-08-02T17:59:09.573Z,7.57
2023-08-02T18:01:36.573Z,4.57
2023-08-02T18:04:04.986Z,8.40
2023-08-02T18:06:32.932Z,6.50
2023-08-02T18:09:00.110Z,7.07
2023-08-02T18:11:29.809Z,7.70
2023-08-02T18:13:57.354Z,6.65
2023-08-02T18:16:27.526Z,7.78
2023-08-02T18:18:56.670Z,8.60
2023-08-02T18:21:23.681Z,6.05
2023-08-02T18:23:50.609Z,7.13
2023-08-02T18:26:17.860Z,5.00
2023-08-02T18:28:45.011Z,7.20
2023-08-02T18:31:12.389Z,8.27
2023-08-02T18:33:39.350Z,5.82
2023-08-02T18:36:16.719Z,9.20
2023-08-02T18:38:49.611Z,6.13
2023-08-02T18:41:18.750Z,8.80
2023-08-02T18:43:52.668Z,5.53
2023-08-02T18:46:22.746Z,10.77
2023-08-02T18:48:49.993Z,6.85
2023-08-02T18:51:18.481Z,5.50
2023-08-02T18:53:50.080Z,5.72
2023-08-02T18:56:18.258Z,8.00
2023-08-02T18:58:46.607Z,6.07
2023-08-02T19:01:13.562Z,6.78
2023-08-02T19:03:41.150Z,6.85
2023-08-02T19:06:09.360Z,8.65
2023-08-02T19:08:44.871Z,4.70
2023-08-02T19:11:26.365Z,6.72
2023-08-02T19:13:54.341Z,7.30
2023-08-02T19:16:23.407Z,5.18
2023-08-02T19:18:50.913Z,6.63
2023-08-02T19:21:18.538Z,6.30
2023-08-02T19:23:51.250Z,6.20
2023-08-02T19:26:19.952Z,6.90
2023-08-02T19:28:48.301Z,7.03
2023-08-02T19:31:15.403Z,8.32
2023-08-02T19:33:46.410Z,8.18
2023-08-02T19:36:23.575Z,5.70
2023-08-02T19:38:51.026Z,6.82
2023-08-02T19:41:27.165Z,6.55
2023-08-02T19:44:02.598Z,10.15
2023-08-02T19:46:29.995Z,6.03
2023-08-02T19:48:57.616Z,6.28
2023-08-02T19:51:24.690Z,8.30
2023-08-02T19:53:51.801Z,7.38
2023-08-02T19:56:25.793Z,5.05
2023-08-02T19:58:58.298Z,5.20
2023-08-02T20:01:29.945Z,6.50
2023-08-02T20:06:27.312Z,7.43
2023-08-02T20:08:54.591Z,7.35
2023-08-02T20:11:23.103Z,7.18
2023-08-02T20:14:13.203Z,10.98
2023-08-02T20:16:43.150Z,6.97
2023-08-02T20:19:23.711Z,8.02
2023-08-02T20:21:53.094Z,8.23
2023-08-02T20:24:21.100Z,12.90
2023-08-02T20:26:51.733Z,8.35
2023-08-02T20:29:26.282Z,11.40
2023-08-02T20:31:53.877Z,7.05
2023-08-02T20:34:22.067Z,8.50
2023-08-02T20:36:55.998Z,9.80
2023-08-02T20:39:27.620Z,7.22
2023-08-02T20:41:58.080Z,8.10
2023-08-02T20:44:28.268Z,7.25
2023-08-02T20:46:55.591Z,6.40
2023-08-02T20:49:22.852Z,8.10
2023-08-02T20:51:54.530Z,9.63
2023-08-02T20:54:21.634Z,9.00
2023-08-02T20:56:48.950Z,8.15
2023-08-02T20:59:23.220Z,6.80
2023-08-02T21:01:51.908Z,9.15
2023-08-02T21:04:26.935Z,7.47
2023-08-02T21:07:09.579Z,9.05
2023-08-02T21:09:39.900Z,10.02
2023-08-02T21:12:07.664Z,8.43
2023-08-02T21:14:34.955Z,7.97
2023-08-02T21:17:02.346Z,8.43
2023-08-02T21:19:35.770Z,7.80
2023-08-02T21:22:12.120Z,7.63
2023-08-02T21:24:49.765Z,5.95
2023-08-02T21:27:25.399Z,10.93
2023-08-02T21:30:01.861Z,6.72
2023-08-02T21:32:43.979Z,6.50
2023-08-02T21:35:19.730Z,6.78
2023-08-02T21:37:56.903Z,9.43
2023-08-02T21:40:31.368Z,9.40
2023-08-02T21:43:13.634Z,7.78
2023-08-02T21:45:46.118Z,9.02
2023-08-02T21:48:16.706Z,7.72
2023-08-02T21:50:45.540Z,9.40
2023-08-02T21:53:20.378Z,8.27
2023-08-02T21:55:48.104Z,8.95
2023-08-02T21:58:20.354Z,8.75
2023-08-02T22:00:48.878Z,10.90
2023-08-02T22:03:18.889Z,11.65
2023-08-02T22:05:46.229Z,8.85
2023-08-02T22:08:15.485Z,6.97
2023-08-02T22:10:45.331Z,9.20
2023-08-02T22:13:19.529Z,9.98
2023-08-02T22:15:46.837Z,9.50
2023-08-02T22:18:17.626Z,8.32
2023-08-02T22:20:44.782Z,10.88
2023-08-02T22:23:11.938Z,8.73
2023-08-02T22:25:40.570Z,9.48
2023-08-02T22:28:07.674Z,9.70
2023-08-02T22:30:34.868Z,7.75
2023-08-02T22:33:12.503Z,8.57
2023-08-02T22:35:39.957Z,6.68
2023-08-02T22:38:09.427Z,10.32
2023-08-02T22:40:40.729Z,8.43
2023-08-02T22:43:07.713Z,9.55
2023-08-02T22:45:34.923Z,8.82
2023-08-02T22:48:42.194Z,8.82
2023-08-02T22:50:56.418Z,10.80
2023-08-02T22:53:24.003Z,8.55
2023-08-02T22:55:51.485Z,9.38
2023-08-02T22:58:18.525Z,8.07
2023-08-02T23:00:46.945Z,6.82
2023-08-02T23:03:36.192Z,7.47
2023-08-02T23:06:08.924Z,7.30
2023-08-02T23:08:37.075Z,7.90
2023-08-02T23:11:12.760Z,9.07
2023-08-02T23:13:44.650Z,8.52
2023-08-02T23:19:06.194Z,8.05
2023-08-02T23:21:43.206Z,9.85
2023-08-02T23:24:12.731Z,10.18
2023-08-02T23:26:39.986Z,5.30
2023-08-02T23:29:07.048Z,8.95
2023-08-02T23:31:34.386Z,9.80
2023-08-02T23:34:02.430Z,10.23
2023-08-02T23:36:37.303Z,6.90
2023-08-02T23:39:11.872Z,9.55
2023-08-02T23:41:39.012Z,7.75
2023-08-02T23:44:06.018Z,9.95
2023-08-02T23:46:35.260Z,7.22
2023-08-02T23:49:03.944Z,6.70
2023-08-02T23:51:30.920Z,7.15
2023-08-02T23:54:05.822Z,7.10
2023-08-02T23:56:32.869Z,7.15
2023-08-02T23:59:00.489Z,9.10
